SEGSMROC

Guest
Details From SEGS - Galapagos - Baltra
To MROC - San Jose Juan Santamaria Intl
Flight Number -
Tags Generated
Created
Modified
Stats Distance 723 nm / 1,340 km
Max Altitude 0 ft / 0 m
Waypoints 3
Social Downloads 0
Likes 0
Share VATSIM

Download

Looking for another format? Having issues loading an existing format? Contact us
Advertisement - Login to hide

Notes

Generated

Route

SEGS R1514 MROC

ID Type Via Altitude Latitude Longitude Leg Dist Tot Dist Heading (true) Name
O SEGS APT - 0 ft / 0 m -0.44499˚ -90.27228˚ - 0 nm - -
R1514 FIX - 0 ft / 0 m 9.98900˚ -84.22186˚ 723 nm 723 nm 30° / 30° -
O MROC APT - 0 ft / 0 m 9.98900˚ -84.22186˚ 0 nm 723 nm 0° / 180° -

Altitude Profile

Advertisement - Login to hide

Weather


0- 5 10 15 20 25 30 35+ Temperature / ° C

Clouds and Precipitation
Forecast for 2017-12-16 18:00 UTC. Updated 10 minutes ago

Ground ~20,000 ft ~40,000 ft Winds

SEGS

Details ICAO SEGS (GPS)
Name Galapagos - Baltra
Region Equador
Timezone Pacific/Galapagos (UTC-6.0)
Stats Elevation 207 ft / 63 m (AMSL)
Location -0.453757° -90.265914°
Runways 1
Magnetic Variation 3.487° E

METAR

SEGS 161700Z 14015KT 9999 FEW 020 BKN090 28/18 Q1012 A2989

Decode

TAF

Not found

Departure Runways

ID Width Length Bearing (true) Bearing (mag) Surface Threshold Offset Overrun Length
14 115 ft / 35 m 7,904 ft / 2,409 m 144.01° 140.52° Asphalt 0 ft / 0 m 330 ft / 101 m
32 115 ft / 35 m 7,904 ft / 2,409 m 324.01° 320.52° Asphalt 0 ft / 0 m 330 ft / 101 m

MROC

Details ICAO MROC (SJO)
Name San Jose Juan Santamaria Intl
Region Costa Rica
Timezone America/Costa_Rica (UTC-6.0)
Stats Elevation 3,021 ft / 921 m (AMSL)
Location 9.993927° -84.208884°
Runways 1
Magnetic Variation 1.719° W

METAR

MROC 161700Z 08014G24KT 050V110 9999 FEW045 28/16 A2999 NOSIG

Decode

TAF

MROC 161100Z 1612/1712 11010KT 9999 FEW045 TX29/1619Z TN18/1710Z TEMPO 1612/1621 10012G22KT

Decode

Destination Runways

ID Width Length Bearing (true) Bearing (mag) Surface Threshold Offset Overrun Length
07 151 ft / 46 m 9,994 ft / 3,046 m 68.91° 70.63° Asphalt 0 ft / 0 m 200 ft / 61 m
25 151 ft / 46 m 9,994 ft / 3,046 m 248.92° 250.64° Asphalt 1,969 ft / 600 m 200 ft / 61 m

Approach Navaids

Runway Type Ident Frequency Range Bearing (true) Bearing (mag) Slope Elevation
07 Localiser IOCO 109.50 MHz 18 nm / 33 km 68.89° 70.61° - 930 ft / 283 m (AMSL)
07 Glidescope IOCO 109.50 MHz 10 nm / 19 km 68.91° 70.63° 3.00° 930 ft / 283 m (AMSL)
07 DME IOCO 109.50 MHz 18 nm / 33 km - - - 930 ft / 283 m (AMSL)

Popular Alternatives